Time;durP1;ratioP1;P1;durP2;ratioP2;P2;SDS_P1;SDS_P2;PMS_P1;PMS_P2;Temp;Humidity;BMP_temperature;BMP_pressure;BME280_temperature;BME280_humidity;BME280_pressure;Samples;Min_cycle;Max_cycle;Signal;HPM_P1;HPM_P2
2021/03/28 00:01:06;;;;;;;20.52;6.90;;;7.40;79.20;;;;;;5030952;28;20034;-73
2021/03/28 00:03:46;;;;;;;21.15;6.05;;;7.40;79.30;;;;;;5017443;28;20659;-73
2021/03/28 00:06:28;;;;;;;16.58;6.10;;;7.40;79.20;;;;;;5015638;28;20050;-74
2021/03/28 00:09:37;;;;;;;20.33;7.07;;;7.40;79.30;;;;;;5017456;28;20082;-73
2021/03/28 00:12:12;;;;;;;19.02;6.45;;;7.30;79.40;;;;;;5013438;28;20045;-73
2021/03/28 00:14:44;;;;;;;;;;;7.40;79.70;;;;;;5020189;28;20091;-73
2021/03/28 00:17:19;;;;;;;18.65;6.22;;;7.30;79.80;;;;;;5016000;28;20008;-72
2021/03/28 00:19:57;;;;;;;18.33;5.90;;;7.30;79.90;;;;;;5017838;28;20056;-74
2021/03/28 00:22:50;;;;;;;16.35;6.07;;;7.30;79.80;;;;;;5033438;28;20141;-73
2021/03/28 00:25:42;;;;;;;13.52;5.50;;;7.30;79.60;;;;;;5008420;28;20045;-73
2021/03/28 00:28:20;;;;;;;16.73;5.85;;;7.30;79.40;;;;;;5022337;28;20129;-73
2021/03/28 00:30:48;;;;;;;17.63;5.57;;;7.30;79.30;;;;;;5022034;28;20038;-74
2021/03/28 00:33:14;;;;;;;18.75;5.85;;;7.40;79.40;;;;;;5019075;28;20117;-73
2021/03/28 00:35:46;;;;;;;17.95;4.93;;;7.40;79.20;;;;;;5039797;28;20559;-72
2021/03/28 00:38:25;;;;;;;19.63;5.72;;;7.40;79.10;;;;;;5016970;28;20037;-73
2021/03/28 00:41:12;;;;;;;18.20;4.97;;;7.40;79.10;;;;;;5024133;28;20030;-73
2021/03/28 00:44:10;;;;;;;18.25;4.85;;;7.40;79.10;;;;;;5020408;28;20053;-73
2021/03/28 00:46:43;;;;;;;18.58;5.28;;;7.40;79.20;;;;;;4984698;28;20052;-74
2021/03/28 00:49:20;;;;;;;18.40;4.75;;;7.40;79.20;;;;;;5017453;28;20738;-73
2021/03/28 00:51:50;;;;;;;15.90;4.72;;;7.30;79.40;;;;;;5024567;28;20053;-74
2021/03/28 00:54:19;;;;;;;12.98;5.10;;;7.30;79.50;;;;;;5016398;28;20477;-74
2021/03/28 00:56:47;;;;;;;16.80;5.43;;;7.40;79.50;;;;;;5025578;28;20044;-73
2021/03/28 00:59:23;;;;;;;15.40;4.72;;;7.40;79.70;;;;;;5018055;28;20041;-73
2021/03/28 01:01:56;;;;;;;14.48;4.85;;;7.50;79.70;;;;;;5017555;28;20045;-73
2021/03/28 01:04:37;;;;;;;19.13;5.47;;;7.60;79.50;;;;;;5020125;28;20068;-74
2021/03/28 01:07:20;;;;;;;17.33;5.35;;;7.60;79.10;;;;;;5020079;28;20049;-74
2021/03/28 01:10:07;;;;;;;16.02;5.53;;;7.70;78.90;;;;;;5017106;28;20469;-73
2021/03/28 01:13:11;;;;;;;15.00;4.80;;;7.70;78.90;;;;;;5010732;28;20038;-73
2021/03/28 01:16:01;;;;;;;14.63;4.55;;;7.80;78.90;;;;;;4977269;28;20646;-73
2021/03/28 01:18:37;;;;;;;18.80;5.45;;;7.90;78.70;;;;;;5028562;28;20070;-73
2021/03/28 01:21:16;;;;;;;18.92;5.32;;;7.90;78.50;;;;;;5008629;28;20103;-73
2021/03/28 01:23:45;;;;;;;18.50;5.30;;;7.90;78.40;;;;;;5014168;28;20060;-73
2021/03/28 01:26:22;;;;;;;11.25;4.35;;;7.90;78.40;;;;;;5010884;28;20129;-73
2021/03/28 01:28:52;;;;;;;11.88;4.75;;;8.00;78.30;;;;;;4997390;28;20365;-78
2021/03/28 01:31:30;;;;;;;14.85;4.70;;;7.90;78.30;;;;;;4999224;28;20486;-72
2021/03/28 01:34:12;;;;;;;12.52;4.45;;;7.90;78.60;;;;;;4995005;28;20072;-72
2021/03/28 01:36:47;;;;;;;13.15;4.22;;;7.90;78.60;;;;;;4996048;28;20445;-77
2021/03/28 01:39:22;;;;;;;;;;;7.90;78.40;;;;;;4995872;28;20066;-76
2021/03/28 01:42:17;;;;;;;12.50;4.57;;;7.90;78.30;;;;;;5001447;28;20027;-73
2021/03/28 01:44:54;;;;;;;12.57;4.25;;;7.90;78.30;;;;;;5000789;28;20064;-73
2021/03/28 01:47:44;;;;;;;16.73;5.32;;;8.00;78.50;;;;;;5000561;28;20048;-74
2021/03/28 01:50:24;;;;;;;15.68;5.13;;;8.10;78.30;;;;;;5013899;28;20033;-73
2021/03/28 01:53:38;;;;;;;13.68;4.30;;;8.10;78.40;;;;;;5015949;28;21027;-76
2021/03/28 01:56:32;;;;;;;13.35;4.85;;;8.10;78.30;;;;;;5016043;28;20039;-75
2021/03/28 01:59:25;;;;;;;13.27;4.70;;;8.10;78.10;;;;;;5026056;28;20067;-73
2021/03/28 02:01:58;;;;;;;12.50;4.80;;;8.10;78.10;;;;;;5013353;28;20038;-73
2021/03/28 02:04:40;;;;;;;13.35;4.82;;;8.20;77.70;;;;;;5017931;28;20069;-73
2021/03/28 02:07:27;;;;;;;14.70;4.75;;;8.20;77.60;;;;;;5017093;28;20112;-76
2021/03/28 02:10:21;;;;;;;11.88;5.10;;;8.20;77.60;;;;;;5023830;28;20162;-73
2021/03/28 02:12:47;;;;;;;13.77;4.55;;;8.20;77.60;;;;;;5019075;28;20045;-74
2021/03/28 02:15:30;;;;;;;11.80;4.20;;;8.20;77.70;;;;;;5016868;28;20488;-72
2021/03/28 02:18:17;;;;;;;11.80;4.15;;;8.20;77.50;;;;;;5025476;28;20096;-73
2021/03/28 02:20:46;;;;;;;14.00;5.35;;;8.20;77.50;;;;;;5021295;28;20072;-73
2021/03/28 02:23:39;;;;;;;14.43;4.80;;;8.30;77.20;;;;;;5024822;28;20036;-75
2021/03/28 02:26:18;;;;;;;13.77;5.15;;;8.30;77.20;;;;;;5030029;28;20041;-74
2021/03/28 02:28:51;;;;;;;11.18;4.47;;;8.30;77.10;;;;;;5026912;28;20419;-74
2021/03/28 02:31:46;;;;;;;13.18;4.68;;;8.30;77.00;;;;;;5027292;28;20099;-75
2021/03/28 02:34:31;;;;;;;14.95;4.65;;;8.30;77.10;;;;;;5009971;28;20048;-74
2021/03/28 02:37:27;;;;;;;11.55;4.60;;;8.30;77.10;;;;;;5018195;28;20061;-72
2021/03/28 02:40:24;;;;;;;13.57;4.88;;;8.30;77.00;;;;;;5008127;28;20110;-72
2021/03/28 02:43:05;;;;;;;14.32;5.10;;;8.40;77.10;;;;;;5018105;28;20033;-72
2021/03/28 02:45:35;;;;;;;14.02;4.45;;;8.30;77.10;;;;;;5027775;28;20065;-74
2021/03/28 02:48:39;;;;;;;11.15;4.28;;;8.30;77.20;;;;;;5022454;28;20052;-73
2021/03/28 02:51:24;;;;;;;17.23;5.30;;;8.30;77.00;;;;;;5019441;28;20038;-71
2021/03/28 02:53:53;;;;;;;10.55;4.32;;;8.40;77.10;;;;;;5006918;28;20041;-72
2021/03/28 02:56:56;;;;;;;12.18;4.85;;;8.30;76.90;;;;;;5018291;28;20034;-72
2021/03/28 02:59:27;;;;;;;13.60;4.72;;;8.40;76.70;;;;;;5019645;28;20041;-73
2021/03/28 03:02:26;;;;;;;12.20;4.25;;;8.40;76.60;;;;;;5025759;28;20029;-73
2021/03/28 03:05:04;;;;;;;15.00;5.43;;;8.40;76.60;;;;;;5003636;28;20053;-73
2021/03/28 03:08:11;;;;;;;14.10;4.47;;;8.40;76.70;;;;;;5008380;28;20120;-73
2021/03/28 03:10:54;;;;;;;11.48;4.70;;;8.40;76.70;;;;;;4995118;28;20112;-75
2021/03/28 03:13:57;;;;;;;14.75;5.15;;;8.40;76.80;;;;;;5011139;28;20029;-72
2021/03/28 03:16:56;;;;;;;15.02;4.82;;;8.30;77.10;;;;;;5014710;28;20087;-73
2021/03/28 03:20:20;;;;;;;15.93;5.47;;;8.30;77.20;;;;;;5020519;28;20515;-73
2021/03/28 03:23:36;;;;;;;12.60;4.88;;;8.20;77.30;;;;;;4973539;28;20492;-73
2021/03/28 03:26:32;;;;;;;12.68;4.47;;;8.30;77.30;;;;;;4946862;28;20081;-73
2021/03/28 03:28:58;;;;;;;15.95;5.38;;;8.30;77.30;;;;;;5016083;28;20041;-73
2021/03/28 03:31:42;;;;;;;10.43;4.57;;;8.20;77.40;;;;;;5022752;28;20041;-74
2021/03/28 03:34:45;;;;;;;12.10;4.80;;;8.30;77.40;;;;;;5021768;28;20037;-74
2021/03/28 03:37:35;;;;;;;9.63;4.43;;;8.30;77.50;;;;;;5021603;28;20118;-73
2021/03/28 03:40:29;;;;;;;17.23;5.40;;;8.20;77.40;;;;;;5004725;28;20033;-76
2021/03/28 03:43:07;;;;;;;12.18;4.72;;;8.20;77.50;;;;;;5023713;28;20128;-73
2021/03/28 03:45:59;;;;;;;9.40;4.13;;;8.20;77.80;;;;;;5022546;28;20042;-74
2021/03/28 03:48:43;;;;;;;11.48;4.82;;;8.20;77.70;;;;;;5028359;28;20449;-74
2021/03/28 03:51:42;;;;;;;12.57;4.38;;;8.30;77.70;;;;;;5017107;28;20039;-76
2021/03/28 03:54:22;;;;;;;10.95;4.70;;;8.30;77.70;;;;;;5022047;28;20057;-74
2021/03/28 03:57:21;;;;;;;10.75;4.63;;;8.30;77.70;;;;;;5020660;28;20029;-74
2021/03/28 03:59:58;;;;;;;13.93;3.85;;;8.30;77.70;;;;;;5027002;28;20041;-73
2021/03/28 04:02:33;;;;;;;10.70;4.30;;;8.20;77.80;;;;;;5022943;28;20045;-74
2021/03/28 04:04:59;;;;;;;;;;;8.30;77.80;;;;;;5019707;28;20049;-73
2021/03/28 04:07:51;;;;;;;13.95;4.47;;;8.20;77.80;;;;;;5017966;28;19924;-73
2021/03/28 04:10:23;;;;;;;11.98;4.18;;;8.20;77.90;;;;;;5017419;28;20030;-74
2021/03/28 04:13:21;;;;;;;14.27;5.00;;;8.30;78.00;;;;;;5023036;28;20537;-75
2021/03/28 04:16:08;;;;;;;10.48;4.13;;;8.20;77.90;;;;;;4966893;28;20038;-73
2021/03/28 04:18:54;;;;;;;13.32;4.32;;;8.30;77.90;;;;;;5021071;28;20042;-72
2021/03/28 04:21:53;;;;;;;12.82;5.18;;;8.30;77.90;;;;;;5019941;28;20039;-75
2021/03/28 04:24:27;;;;;;;10.85;4.57;;;8.30;78.00;;;;;;5013476;28;20117;-73
2021/03/28 04:27:36;;;;;;;12.85;5.07;;;8.30;78.00;;;;;;5035816;28;20128;-74
2021/03/28 04:30:03;;;;;;;11.57;4.40;;;8.30;78.10;;;;;;5014378;28;20486;-73
2021/03/28 04:33:00;;;;;;;12.82;5.15;;;8.40;78.10;;;;;;5011493;28;20397;-76
2021/03/28 04:35:51;;;;;;;13.18;5.47;;;8.30;78.00;;;;;;5017560;28;20037;-76
2021/03/28 04:38:28;;;;;;;12.95;4.95;;;8.40;78.10;;;;;;5013599;28;20041;-74
2021/03/28 04:41:13;;;;;;;13.23;4.28;;;8.30;78.00;;;;;;5014353;28;20140;-74
2021/03/28 04:44:00;;;;;;;13.20;4.60;;;8.30;78.10;;;;;;5008277;28;20080;-74
2021/03/28 04:47:01;;;;;;;11.43;5.07;;;8.30;78.10;;;;;;5020263;28;20272;-76
2021/03/28 04:49:57;;;;;;;16.52;4.85;;;8.30;78.10;;;;;;5016334;28;20420;-75
2021/03/28 04:52:22;;;;;;;11.15;4.90;;;8.20;78.20;;;;;;5016979;28;20034;-74
2021/03/28 04:55:09;;;;;;;11.93;4.28;;;8.20;78.40;;;;;;5018547;28;20494;-75
2021/03/28 04:58:22;;;;;;;14.63;4.70;;;8.20;78.40;;;;;;5003577;28;20485;-75
2021/03/28 05:01:15;;;;;;;13.60;4.50;;;8.20;78.60;;;;;;4953537;28;20194;-74
2021/03/28 05:03:53;;;;;;;11.25;4.50;;;8.20;78.70;;;;;;5014704;28;20488;-74
2021/03/28 05:06:37;;;;;;;11.30;4.40;;;8.20;78.60;;;;;;5016341;28;20085;-74
2021/03/28 05:09:37;;;;;;;11.73;4.70;;;8.20;78.60;;;;;;4997696;28;20041;-74
2021/03/28 05:12:30;;;;;;;16.75;5.65;;;8.20;78.70;;;;;;5026615;28;20096;-75
2021/03/28 05:15:15;;;;;;;12.35;5.93;;;8.30;78.50;;;;;;4997223;28;20540;-74
2021/03/28 05:18:11;;;;;;;15.02;5.97;;;8.30;78.40;;;;;;4996600;28;20484;-73
2021/03/28 05:20:56;;;;;;;14.48;5.22;;;8.30;78.40;;;;;;4999197;28;20037;-74
2021/03/28 05:23:42;;;;;;;14.73;5.57;;;8.40;78.30;;;;;;5003710;28;20089;-75
2021/03/28 05:26:38;;;;;;;12.93;4.88;;;8.40;78.10;;;;;;4994441;28;20062;-74
2021/03/28 05:29:09;;;;;;;13.40;4.65;;;8.40;78.10;;;;;;5027640;28;20080;-74
2021/03/28 05:31:53;;;;;;;16.38;6.07;;;8.40;78.20;;;;;;5009874;28;20472;-73
2021/03/28 05:34:33;;;;;;;13.43;4.85;;;8.40;78.00;;;;;;5003823;28;20046;-74
2021/03/28 05:37:36;;;;;;;15.25;5.35;;;8.40;78.00;;;;;;4996757;28;20044;-73
2021/03/28 05:40:20;;;;;;;15.45;5.60;;;8.40;78.10;;;;;;5012679;28;20481;-73
2021/03/28 05:43:07;;;;;;;12.20;4.63;;;8.40;77.90;;;;;;5017770;28;20044;-72
2021/03/28 05:45:42;;;;;;;14.43;5.38;;;8.50;77.80;;;;;;5020207;28;20386;-72
2021/03/28 05:48:26;;;;;;;;;;;8.50;77.70;;;;;;5021584;28;20090;-73
2021/03/28 05:51:19;;;;;;;13.55;5.30;;;8.60;77.50;;;;;;5020232;28;19963;-74
2021/03/28 05:54:06;;;;;;;14.82;5.78;;;8.60;77.60;;;;;;5020024;28;20094;-73
2021/03/28 05:57:10;;;;;;;16.17;6.20;;;8.60;77.50;;;;;;5036321;28;20042;-72
2021/03/28 05:59:47;;;;;;;10.93;4.80;;;8.60;77.60;;;;;;5014126;28;20048;-72
2021/03/28 06:02:37;;;;;;;16.83;5.47;;;8.60;77.50;;;;;;5020236;28;20907;-72
2021/03/28 06:05:21;;;;;;;12.60;4.57;;;8.60;77.40;;;;;;5033407;28;20414;-73
2021/03/28 06:08:18;;;;;;;13.03;4.93;;;8.60;77.30;;;;;;5001050;28;20069;-73
2021/03/28 06:11:02;;;;;;;12.70;5.47;;;8.60;77.40;;;;;;5025459;28;20176;-73
2021/03/28 06:14:05;;;;;;;16.75;6.00;;;8.60;77.50;;;;;;5006104;28;20516;-75
2021/03/28 06:17:15;;;;;;;15.88;5.47;;;8.70;77.40;;;;;;5014599;28;20083;-73
2021/03/28 06:20:01;;;;;;;17.52;7.85;;;8.60;77.30;;;;;;4988611;28;20038;-75
2021/03/28 06:22:47;;;;;;;13.20;5.80;;;8.60;77.30;;;;;;5002001;28;20037;-76
2021/03/28 06:25:33;;;;;;;13.18;5.00;;;8.70;77.30;;;;;;5009240;28;20042;-74
2021/03/28 06:28:13;;;;;;;14.85;5.95;;;8.70;77.10;;;;;;5016162;28;20041;-76
2021/03/28 06:31:18;;;;;;;19.30;6.80;;;8.60;77.10;;;;;;5009983;28;20045;-77
2021/03/28 06:33:52;;;;;;;13.38;5.75;;;8.60;77.00;;;;;;4972115;28;20046;-77
2021/03/28 06:36:46;;;;;;;15.00;6.28;;;8.60;77.10;;;;;;5012231;28;20029;-76
2021/03/28 06:39:24;;;;;;;16.88;7.10;;;8.60;77.30;;;;;;5011492;28;20692;-73
2021/03/28 06:42:11;;;;;;;13.15;5.15;;;8.60;77.30;;;;;;5009533;28;20095;-73
2021/03/28 06:45:06;;;;;;;17.00;5.45;;;8.60;77.30;;;;;;5011809;28;20058;-72
2021/03/28 06:48:18;;;;;;;13.73;5.10;;;8.60;77.40;;;;;;5009726;28;20067;-73
2021/03/28 06:51:11;;;;;;;11.73;4.75;;;8.50;77.60;;;;;;5011267;28;20034;-75
2021/03/28 06:54:15;;;;;;;14.60;4.80;;;8.50;77.60;;;;;;4991642;28;20424;-78
2021/03/28 06:57:04;;;;;;;15.25;6.25;;;8.40;77.70;;;;;;5004166;28;20375;-74
2021/03/28 06:59:48;;;;;;;13.80;5.60;;;8.50;77.70;;;;;;5021985;28;20034;-78
2021/03/28 07:02:36;;;;;;;12.95;4.80;;;8.60;77.40;;;;;;5031215;28;20091;-74
2021/03/28 07:05:07;;;;;;;18.35;5.13;;;8.70;77.00;;;;;;5024041;28;20045;-73
2021/03/28 07:08:08;;;;;;;13.90;5.43;;;8.90;76.70;;;;;;5022135;28;20021;-73
2021/03/28 07:10:56;;;;;;;15.63;5.38;;;9.00;76.30;;;;;;5002797;28;20034;-73
2021/03/28 07:13:50;;;;;;;17.70;6.22;;;9.10;75.70;;;;;;4993934;28;20369;-74
2021/03/28 07:16:26;;;;;;;17.25;4.95;;;9.20;75.40;;;;;;5010480;28;20104;-75
2021/03/28 07:19:16;;;;;;;14.48;5.13;;;9.30;74.90;;;;;;4997008;28;20038;-74
2021/03/28 07:22:00;;;;;;;14.77;5.38;;;9.40;74.20;;;;;;5034149;28;20045;-73
2021/03/28 07:25:04;;;;;;;13.32;4.55;;;9.60;73.80;;;;;;5021336;28;20042;-76
2021/03/28 07:27:29;;;;;;;13.65;4.68;;;9.60;73.40;;;;;;5015327;28;20485;-73
2021/03/28 07:30:23;;;;;;;10.90;4.50;;;9.80;73.10;;;;;;5020212;28;20048;-75
2021/03/28 07:33:12;;;;;;;15.32;4.97;;;10.00;71.90;;;;;;5021217;28;20201;-74
2021/03/28 07:36:07;;;;;;;15.80;5.45;;;10.10;71.20;;;;;;5021425;28;20176;-77
2021/03/28 07:39:17;;;;;;;17.25;5.03;;;10.40;70.50;;;;;;5020062;28;20051;-74
2021/03/28 07:42:07;;;;;;;12.77;4.20;;;10.40;69.60;;;;;;5020284;28;20132;-74
2021/03/28 07:44:56;;;;;;;12.05;4.18;;;10.60;69.60;;;;;;5037768;28;20104;-73
2021/03/28 07:47:50;;;;;;;10.95;4.40;;;10.80;68.50;;;;;;5022889;28;20072;-73
2021/03/28 07:50:40;;;;;;;15.73;4.50;;;10.60;68.30;;;;;;5025294;28;20072;-73
2021/03/28 07:53:36;;;;;;;15.07;4.20;;;10.70;68.30;;;;;;5022883;28;20504;-74
2021/03/28 07:56:20;;;;;;;13.07;4.18;;;10.80;68.30;;;;;;5023685;28;20032;-74
2021/03/28 07:59:16;;;;;;;12.45;3.95;;;10.70;67.90;;;;;;5023816;28;20047;-73
2021/03/28 08:01:57;;;;;;;11.55;3.25;;;10.60;67.50;;;;;;5020668;28;20806;-74
2021/03/28 08:04:37;;;;;;;12.88;3.08;;;10.60;67.80;;;;;;5017357;28;20042;-73
2021/03/28 08:07:33;;;;;;;15.70;3.53;;;10.80;66.40;;;;;;5020486;28;20037;-74
2021/03/28 08:10:02;;;;;;;16.83;3.38;;;11.20;65.10;;;;;;5037064;28;20416;-75
2021/03/28 08:12:48;;;;;;;16.27;3.50;;;11.40;64.20;;;;;;5022828;28;20448;-73
2021/03/28 08:15:30;;;;;;;15.20;3.63;;;11.50;63.30;;;;;;5019278;28;20492;-73
2021/03/28 08:18:20;;;;;;;14.70;3.28;;;11.70;63.10;;;;;;5024287;28;20083;-74
2021/03/28 08:21:27;;;;;;;13.98;3.17;;;11.90;62.40;;;;;;5037238;28;20044;-72
2021/03/28 08:24:12;;;;;;;10.35;3.10;;;12.10;61.50;;;;;;5002769;28;20040;-70
2021/03/28 08:26:53;;;;;;;13.40;3.60;;;12.10;61.40;;;;;;5008084;28;20168;-71
2021/03/28 08:29:42;;;;;;;12.02;2.95;;;12.10;61.20;;;;;;4997726;28;20034;-69
2021/03/28 08:32:29;;;;;;;12.45;3.25;;;12.30;60.30;;;;;;5008301;28;20037;-70
2021/03/28 08:35:20;;;;;;;14.63;3.67;;;12.40;60.40;;;;;;5011275;28;20764;-69
2021/03/28 08:38:07;;;;;;;11.82;3.50;;;12.60;60.20;;;;;;5002868;28;20465;-69
2021/03/28 08:40:49;;;;;;;12.15;3.03;;;12.80;59.00;;;;;;5006106;28;20037;-70
2021/03/28 08:43:34;;;;;;;12.57;3.05;;;13.10;58.80;;;;;;5010223;28;20076;-70
2021/03/28 08:46:18;;;;;;;10.82;2.83;;;13.00;57.60;;;;;;5006774;28;20033;-69
2021/03/28 08:49:02;;;;;;;11.15;3.08;;;13.20;57.60;;;;;;5028546;28;20029;-70
2021/03/28 08:51:30;;;;;;;11.82;3.20;;;13.20;56.80;;;;;;5017170;28;20038;-70
2021/03/28 08:54:51;;;;;;;10.35;3.35;;;13.30;57.80;;;;;;5017181;28;20112;-70
2021/03/28 08:57:43;;;;;;;13.90;2.85;;;13.30;56.50;;;;;;4971300;28;20033;-72
2021/03/28 09:00:34;;;;;;;10.57;3.35;;;13.00;57.30;;;;;;5015234;28;20084;-70
2021/03/28 09:03:11;;;;;;;11.60;3.03;;;12.80;57.70;;;;;;5018974;28;20093;-71
2021/03/28 09:05:49;;;;;;;12.73;3.40;;;12.70;58.40;;;;;;5015816;28;20103;-72
2021/03/28 09:08:51;;;;;;;12.38;3.08;;;12.70;58.90;;;;;;5013066;28;20128;-70
2021/03/28 09:11:50;;;;;;;14.80;3.33;;;12.60;58.00;;;;;;5015840;28;20034;-70
2021/03/28 09:14:46;;;;;;;13.85;3.63;;;12.50;58.30;;;;;;5015833;28;20042;-69
2021/03/28 09:17:40;;;;;;;12.05;3.40;;;12.40;58.80;;;;;;5000360;28;20038;-69
2021/03/28 09:20:29;;;;;;;13.48;3.20;;;12.50;58.60;;;;;;5015764;28;20032;-71
2021/03/28 09:23:17;;;;;;;11.88;3.00;;;12.90;57.70;;;;;;5026546;28;20037;-70
2021/03/28 09:26:02;;;;;;;15.85;3.53;;;13.20;56.90;;;;;;5007512;28;20062;-72
2021/03/28 09:28:43;;;;;;;;;;;13.30;55.90;;;;;;5031791;28;20408;-69
2021/03/28 09:31:36;;;;;;;9.55;2.78;;;13.20;56.50;;;;;;5025659;28;20352;-72
2021/03/28 09:34:31;;;;;;;15.23;3.70;;;13.20;57.00;;;;;;5006585;28;20025;-72
2021/03/28 09:37:25;;;;;;;11.65;2.85;;;13.60;56.20;;;;;;5001246;28;20056;-70
2021/03/28 09:40:02;;;;;;;13.55;2.70;;;13.70;56.40;;;;;;5009047;28;20120;-71
2021/03/28 09:42:42;;;;;;;14.68;3.40;;;13.30;56.50;;;;;;5023009;28;20472;-71
2021/03/28 09:45:23;;;;;;;10.88;2.60;;;13.60;57.00;;;;;;5026070;28;20494;-73
2021/03/28 09:48:06;;;;;;;11.07;3.33;;;13.90;55.80;;;;;;5022024;28;20049;-70
2021/03/28 09:50:50;;;;;;;13.27;4.82;;;14.00;55.80;;;;;;5026409;28;20473;-70
2021/03/28 09:53:41;;;;;;;15.57;7.05;;;13.70;54.60;;;;;;5029149;28;20034;-71
2021/03/28 09:56:42;;;;;;;18.80;9.60;;;13.70;54.90;;;;;;5020660;28;20041;-72
2021/03/28 09:59:54;;;;;;;17.42;8.70;;;13.60;54.30;;;;;;5022664;28;20393;-70
2021/03/28 10:02:58;;;;;;;19.73;10.07;;;13.50;53.70;;;;;;5026824;28;20472;-70
2021/03/28 10:05:32;;;;;;;23.35;11.05;;;13.10;54.30;;;;;;5025737;28;20563;-71
2021/03/28 10:08:06;;;;;;;15.52;10.00;;;13.40;55.20;;;;;;5026384;28;20033;-71
2021/03/28 10:10:41;;;;;;;16.95;8.15;;;13.70;55.00;;;;;;5003479;28;20045;-71
2021/03/28 10:13:18;;;;;;;20.30;10.25;;;13.60;53.50;;;;;;5013773;28;20435;-71
2021/03/28 10:16:00;;;;;;;20.60;11.27;;;13.30;53.80;;;;;;4999441;28;20042;-70
2021/03/28 10:18:50;;;;;;;18.60;10.65;;;13.20;54.60;;;;;;5022150;28;20067;-69
2021/03/28 10:21:36;;;;;;;23.13;11.23;;;13.10;54.40;;;;;;5019997;28;20040;-72
2021/03/28 10:24:21;;;;;;;19.67;11.05;;;13.40;54.30;;;;;;5025043;28;20043;-70
2021/03/28 10:27:04;;;;;;;25.35;10.80;;;13.70;54.20;;;;;;5027121;28;20041;-71
2021/03/28 10:29:42;;;;;;;22.70;12.23;;;13.50;53.00;;;;;;5027927;28;20041;-74
2021/03/28 10:32:20;;;;;;;23.88;13.75;;;13.70;52.60;;;;;;5022587;28;20033;-71
2021/03/28 10:35:23;;;;;;;19.73;11.38;;;13.60;52.80;;;;;;5026811;28;20095;-71
2021/03/28 10:38:22;;;;;;;19.60;10.20;;;13.60;53.30;;;;;;5018102;28;20189;-70
2021/03/28 10:41:03;;;;;;;18.55;7.38;;;13.70;52.70;;;;;;5024659;28;20034;-71
2021/03/28 10:43:46;;;;;;;19.38;7.70;;;13.60;54.00;;;;;;5018687;28;20042;-70
2021/03/28 10:46:53;;;;;;;19.70;8.32;;;13.70;53.50;;;;;;5036388;28;20107;-70
2021/03/28 10:49:24;;;;;;;21.50;10.40;;;14.00;53.80;;;;;;5020227;28;20030;-70
2021/03/28 10:52:08;;;;;;;21.35;9.73;;;14.20;53.00;;;;;;5023307;28;20175;-70
2021/03/28 10:55:16;;;;;;;21.23;10.60;;;14.10;53.20;;;;;;5023875;28;20025;-72
2021/03/28 10:57:54;;;;;;;19.98;11.40;;;14.10;52.70;;;;;;5016872;28;20079;-71
2021/03/28 11:00:19;;;;;;;17.08;8.32;;;14.50;52.40;;;;;;5018473;28;20040;-70
2021/03/28 11:03:22;;;;;;;14.77;6.72;;;14.60;52.10;;;;;;5018026;28;20049;-70
2021/03/28 11:06:06;;;;;;;14.43;6.85;;;14.80;52.60;;;;;;5016686;28;20074;-70
2021/03/28 11:09:14;;;;;;;14.87;6.30;;;14.80;51.70;;;;;;5034863;28;20522;-70
2021/03/28 11:12:01;;;;;;;15.57;3.67;;;14.70;52.50;;;;;;5016708;28;20499;-72
2021/03/28 11:15:12;;;;;;;13.82;5.10;;;14.70;52.30;;;;;;5018373;28;20421;-71
2021/03/28 11:17:55;;;;;;;11.18;3.13;;;14.50;53.00;;;;;;4981273;28;20050;-71
2021/03/28 11:20:46;;;;;;;15.55;3.42;;;14.20;53.90;;;;;;5009655;28;20092;-71
2021/03/28 11:23:43;;;;;;;15.90;5.63;;;14.20;54.00;;;;;;4999154;28;20026;-72
2021/03/28 11:26:20;;;;;;;13.43;4.88;;;14.10;54.40;;;;;;5003739;28;20060;-71
2021/03/28 11:29:23;;;;;;;16.45;6.03;;;14.20;53.90;;;;;;5013563;28;20573;-71
2021/03/28 11:31:58;;;;;;;12.55;5.35;;;14.50;53.40;;;;;;5020342;28;20082;-74
2021/03/28 11:34:42;;;;;;;;;;;14.40;52.50;;;;;;5023454;28;20479;-73
2021/03/28 11:37:42;;;;;;;15.30;6.22;;;14.20;51.80;;;;;;5032342;28;20249;-74
2021/03/28 11:40:07;;;;;;;18.95;6.45;;;14.30;51.60;;;;;;5006081;28;20558;-74
2021/03/28 11:42:33;;;;;;;20.10;6.35;;;14.40;52.00;;;;;;4994473;28;20065;-74
2021/03/28 11:44:59;;;;;;;11.13;3.35;;;14.60;51.80;;;;;;5002557;28;20488;-73
2021/03/28 11:47:29;;;;;;;13.68;3.35;;;14.60;51.20;;;;;;5011061;28;20057;-72
2021/03/28 11:50:08;;;;;;;12.80;3.33;;;14.60;51.20;;;;;;5018954;28;20917;-73
2021/03/28 11:52:54;;;;;;;12.57;3.63;;;14.80;51.40;;;;;;5019819;28;20223;-73
2021/03/28 11:55:28;;;;;;;12.23;4.28;;;14.80;50.90;;;;;;4994103;28;20121;-74
2021/03/28 11:58:12;;;;;;;14.18;4.75;;;14.90;50.60;;;;;;5035577;28;20131;-75
2021/03/28 12:00:41;;;;;;;13.27;4.95;;;15.00;50.50;;;;;;5016673;28;20048;-76
2021/03/28 12:03:18;;;;;;;14.18;5.97;;;15.00;50.50;;;;;;5010869;28;20072;-77
2021/03/28 12:06:04;;;;;;;18.60;5.35;;;14.70;50.90;;;;;;5013051;28;20162;-71
2021/03/28 12:08:44;;;;;;;14.18;4.68;;;14.80;51.30;;;;;;5011890;28;20037;-74
2021/03/28 12:11:34;;;;;;;15.13;5.10;;;15.10;51.40;;;;;;5017609;28;20063;-74
2021/03/28 12:14:15;;;;;;;16.35;4.68;;;15.50;50.90;;;;;;5021531;28;20780;-72
2021/03/28 12:17:09;;;;;;;11.82;4.50;;;15.50;50.50;;;;;;5004949;28;20033;-74
2021/03/28 12:20:04;;;;;;;17.30;5.22;;;15.80;49.80;;;;;;5019213;28;20090;-74
2021/03/28 12:22:42;;;;;;;12.18;3.63;;;15.90;49.40;;;;;;5016469;28;20481;-74
2021/03/28 12:25:13;;;;;;;13.48;3.25;;;15.70;49.60;;;;;;5015030;28;20045;-75
2021/03/28 12:27:43;;;;;;;12.27;3.20;;;15.80;49.90;;;;;;5022320;28;20095;-75
2021/03/28 12:30:27;;;;;;;14.07;3.80;;;15.90;49.50;;;;;;5020706;28;20473;-75
2021/03/28 12:33:24;;;;;;;14.63;4.33;;;15.70;49.30;;;;;;5020223;28;20116;-74
2021/03/28 12:35:58;;;;;;;14.02;3.70;;;15.50;49.70;;;;;;5013298;28;20097;-74
2021/03/28 12:38:27;;;;;;;12.77;3.75;;;15.10;50.10;;;;;;4993141;28;20062;-75
2021/03/28 12:41:11;;;;;;;11.40;3.58;;;15.10;50.30;;;;;;4997124;28;20089;-78
2021/03/28 12:43:41;;;;;;;13.82;3.10;;;15.20;51.00;;;;;;5000412;28;20081;-75
2021/03/28 12:46:31;;;;;;;11.73;3.30;;;15.40;51.00;;;;;;4996517;28;20038;-75
2021/03/28 12:49:09;;;;;;;15.45;3.78;;;15.60;50.30;;;;;;4996703;28;20398;-73
2021/03/28 12:51:38;;;;;;;15.38;3.47;;;15.60;50.00;;;;;;4997821;28;20048;-74
2021/03/28 12:54:31;;;;;;;12.18;3.10;;;15.60;50.20;;;;;;4999083;28;20057;-73
2021/03/28 12:57:01;;;;;;;17.23;3.25;;;15.40;51.10;;;;;;4997579;28;20046;-74
2021/03/28 12:59:34;;;;;;;9.63;2.80;;;15.50;50.90;;;;;;5016949;28;20129;-72
2021/03/28 13:02:36;;;;;;;13.75;3.38;;;15.50;50.80;;;;;;5015957;28;20087;-72
2021/03/28 13:05:16;;;;;;;9.15;2.58;;;15.30;50.70;;;;;;4995133;28;20049;-73
2021/03/28 13:07:54;;;;;;;10.57;2.20;;;15.60;50.60;;;;;;5005016;28;20077;-73
2021/03/28 13:10:26;;;;;;;13.70;2.92;;;15.60;50.20;;;;;;5001454;28;20048;-73
2021/03/28 13:13:14;;;;;;;13.93;3.28;;;15.60;50.70;;;;;;5008858;28;20065;-75
2021/03/28 13:15:51;;;;;;;12.82;3.42;;;15.40;50.90;;;;;;5002525;28;20578;-72
2021/03/28 13:18:38;;;;;;;9.35;2.65;;;15.30;51.50;;;;;;5017975;28;20042;-71
2021/03/28 13:21:34;;;;;;;9.27;2.78;;;15.20;51.80;;;;;;5025998;28;20033;-74
2021/03/28 13:24:03;;;;;;;13.18;3.00;;;15.20;51.60;;;;;;5021711;28;20064;-75
2021/03/28 13:27:03;;;;;;;11.00;3.00;;;15.30;51.90;;;;;;5017940;28;20461;-74
2021/03/28 13:29:38;;;;;;;9.68;3.00;;;15.30;51.70;;;;;;5009240;28;20026;-74
2021/03/28 13:32:16;;;;;;;10.75;2.97;;;15.30;51.80;;;;;;5017291;28;20456;-74
2021/03/28 13:34:49;;;;;;;8.05;3.03;;;15.30;51.30;;;;;;5013581;28;21615;-73
2021/03/28 13:37:53;;;;;;;17.40;3.45;;;15.30;51.80;;;;;;5015911;28;20030;-74
2021/03/28 13:40:22;;;;;;;8.57;2.30;;;15.50;51.30;;;;;;5012196;28;20129;-74
2021/03/28 13:43:01;;;;;;;10.10;2.53;;;15.60;51.40;;;;;;5017944;28;20080;-77
2021/03/28 13:45:32;;;;;;;10.57;2.60;;;15.70;50.90;;;;;;5022872;28;20050;-77
2021/03/28 13:48:06;;;;;;;13.00;2.75;;;15.80;50.50;;;;;;5020141;28;20033;-74
2021/03/28 13:50:47;;;;;;;10.38;2.67;;;15.80;50.60;;;;;;5020646;28;20559;-74
2021/03/28 13:53:16;;;;;;;11.52;2.45;;;15.90;49.90;;;;;;5016534;28;20052;-74
2021/03/28 13:55:52;;;;;;;10.02;2.80;;;15.80;50.20;;;;;;5027604;28;20434;-75
2021/03/28 13:58:17;;;;;;;9.23;2.38;;;15.80;50.70;;;;;;5016352;28;20114;-75
2021/03/28 14:00:45;;;;;;;12.65;2.60;;;15.60;50.50;;;;;;5016410;28;20552;-75
2021/03/28 14:03:25;;;;;;;12.02;2.53;;;15.60;50.70;;;;;;5014224;28;20040;-74
2021/03/28 14:05:51;;;;;;;11.55;2.83;;;15.70;50.70;;;;;;5008206;28;20046;-74
2021/03/28 14:08:21;;;;;;;11.38;2.50;;;15.80;50.50;;;;;;4991778;28;20397;-74
2021/03/28 14:10:58;;;;;;;11.98;2.65;;;15.80;50.70;;;;;;4997829;28;20184;-76
2021/03/28 14:13:34;;;;;;;12.85;2.92;;;15.80;50.70;;;;;;4995848;28;20429;-76
2021/03/28 14:16:00;;;;;;;11.15;2.60;;;15.80;50.50;;;;;;5006680;28;20135;-74